sensor_id;sensor_type;location;lat;lon;timestamp;P1;durP1;ratioP1;P2;durP2;ratioP2
11334;SDS011;5722;42.620;23.374;2022-12-07T00:08:37;38.03;;;24.20;;
11334;SDS011;5722;42.620;23.374;2022-12-07T00:11:19;38.70;;;26.63;;
11334;SDS011;5722;42.620;23.374;2022-12-07T00:13:58;47.10;;;28.83;;
11334;SDS011;5722;42.620;23.374;2022-12-07T00:16:31;52.60;;;31.30;;
11334;SDS011;5722;42.620;23.374;2022-12-07T00:19:05;41.53;;;26.53;;
11334;SDS011;5722;42.620;23.374;2022-12-07T00:21:35;48.07;;;28.77;;
11334;SDS011;5722;42.620;23.374;2022-12-07T00:24:09;50.00;;;31.17;;
11334;SDS011;5722;42.620;23.374;2022-12-07T00:26:54;46.53;;;29.97;;
11334;SDS011;5722;42.620;23.374;2022-12-07T00:29:23;53.80;;;31.17;;
11334;SDS011;5722;42.620;23.374;2022-12-07T00:31:56;45.17;;;29.80;;
11334;SDS011;5722;42.620;23.374;2022-12-07T00:34:35;49.27;;;29.60;;
11334;SDS011;5722;42.620;23.374;2022-12-07T00:37:35;45.47;;;28.90;;
11334;SDS011;5722;42.620;23.374;2022-12-07T00:40:07;47.17;;;31.00;;
11334;SDS011;5722;42.620;23.374;2022-12-07T00:42:54;50.93;;;32.07;;
11334;SDS011;5722;42.620;23.374;2022-12-07T00:51:31;53.63;;;32.97;;
11334;SDS011;5722;42.620;23.374;2022-12-07T00:54:03;49.20;;;31.43;;
11334;SDS011;5722;42.620;23.374;2022-12-07T00:56:30;52.40;;;32.07;;
11334;SDS011;5722;42.620;23.374;2022-12-07T00:59:03;50.60;;;31.33;;
11334;SDS011;5722;42.620;23.374;2022-12-07T01:01:33;55.63;;;32.57;;
11334;SDS011;5722;42.620;23.374;2022-12-07T01:04:03;48.40;;;31.63;;
11334;SDS011;5722;42.620;23.374;2022-12-07T01:06:47;44.93;;;28.23;;
11334;SDS011;5722;42.620;23.374;2022-12-07T01:12:06;50.07;;;30.10;;
11334;SDS011;5722;42.620;23.374;2022-12-07T01:46:49;67.77;;;43.13;;
11334;SDS011;5722;42.620;23.374;2022-12-07T01:49:23;51.37;;;34.80;;
11334;SDS011;5722;42.620;23.374;2022-12-07T01:52:01;45.80;;;29.80;;
11334;SDS011;5722;42.620;23.374;2022-12-07T01:54:34;50.57;;;29.73;;
11334;SDS011;5722;42.620;23.374;2022-12-07T01:57:06;45.67;;;28.03;;
11334;SDS011;5722;42.620;23.374;2022-12-07T01:59:38;51.17;;;28.57;;
11334;SDS011;5722;42.620;23.374;2022-12-07T02:05:14;46.83;;;27.47;;
11334;SDS011;5722;42.620;23.374;2022-12-07T02:08:04;48.37;;;29.33;;
11334;SDS011;5722;42.620;23.374;2022-12-07T02:10:50;42.13;;;27.30;;
11334;SDS011;5722;42.620;23.374;2022-12-07T02:13:32;47.03;;;27.67;;
11334;SDS011;5722;42.620;23.374;2022-12-07T02:16:14;43.13;;;28.40;;
11334;SDS011;5722;42.620;23.374;2022-12-07T02:18:45;40.93;;;26.77;;
11334;SDS011;5722;42.620;23.374;2022-12-07T02:21:25;44.67;;;27.37;;
11334;SDS011;5722;42.620;23.374;2022-12-07T02:24:03;41.57;;;26.70;;
11334;SDS011;5722;42.620;23.374;2022-12-07T02:26:55;45.57;;;28.53;;
11334;SDS011;5722;42.620;23.374;2022-12-07T02:29:49;43.23;;;27.03;;
11334;SDS011;5722;42.620;23.374;2022-12-07T02:32:23;44.83;;;27.07;;
11334;SDS011;5722;42.620;23.374;2022-12-07T02:35:04;48.13;;;29.33;;
11334;SDS011;5722;42.620;23.374;2022-12-07T02:37:45;55.60;;;33.23;;
11334;SDS011;5722;42.620;23.374;2022-12-07T02:40:18;47.83;;;29.97;;
11334;SDS011;5722;42.620;23.374;2022-12-07T02:42:49;50.10;;;32.87;;
11334;SDS011;5722;42.620;23.374;2022-12-07T02:45:40;68.67;;;44.83;;
11334;SDS011;5722;42.620;23.374;2022-12-07T02:48:17;48.93;;;31.83;;
11334;SDS011;5722;42.620;23.374;2022-12-07T02:50:52;55.73;;;34.87;;
11334;SDS011;5722;42.620;23.374;2022-12-07T02:56:30;45.90;;;28.27;;
11334;SDS011;5722;42.620;23.374;2022-12-07T02:59:06;46.30;;;27.43;;
11334;SDS011;5722;42.620;23.374;2022-12-07T03:01:42;44.87;;;27.97;;
11334;SDS011;5722;42.620;23.374;2022-12-07T03:04:22;43.93;;;25.50;;
11334;SDS011;5722;42.620;23.374;2022-12-07T03:07:11;42.53;;;26.97;;
11334;SDS011;5722;42.620;23.374;2022-12-07T03:09:59;42.10;;;27.70;;
11334;SDS011;5722;42.620;23.374;2022-12-07T03:12:32;50.83;;;32.20;;
11334;SDS011;5722;42.620;23.374;2022-12-07T03:18:15;54.23;;;33.33;;
11334;SDS011;5722;42.620;23.374;2022-12-07T03:20:43;42.73;;;27.10;;
11334;SDS011;5722;42.620;23.374;2022-12-07T03:23:14;42.23;;;27.10;;
11334;SDS011;5722;42.620;23.374;2022-12-07T03:25:57;39.63;;;25.90;;
11334;SDS011;5722;42.620;23.374;2022-12-07T03:28:36;39.57;;;26.27;;
11334;SDS011;5722;42.620;23.374;2022-12-07T03:31:08;37.73;;;25.60;;
11334;SDS011;5722;42.620;23.374;2022-12-07T03:33:53;39.93;;;26.00;;
11334;SDS011;5722;42.620;23.374;2022-12-07T03:36:44;41.17;;;26.17;;
11334;SDS011;5722;42.620;23.374;2022-12-07T03:39:21;37.83;;;23.73;;
11334;SDS011;5722;42.620;23.374;2022-12-07T03:42:19;37.27;;;23.50;;
11334;SDS011;5722;42.620;23.374;2022-12-07T03:45:03;36.17;;;23.93;;
11334;SDS011;5722;42.620;23.374;2022-12-07T03:47:33;41.50;;;23.37;;
11334;SDS011;5722;42.620;23.374;2022-12-07T03:56:10;38.43;;;24.07;;
11334;SDS011;5722;42.620;23.374;2022-12-07T03:58:41;34.67;;;23.53;;
11334;SDS011;5722;42.620;23.374;2022-12-07T04:01:22;45.27;;;28.17;;
11334;SDS011;5722;42.620;23.374;2022-12-07T04:03:50;36.53;;;23.87;;
11334;SDS011;5722;42.620;23.374;2022-12-07T04:06:23;36.37;;;24.30;;
11334;SDS011;5722;42.620;23.374;2022-12-07T04:08:52;47.27;;;28.43;;
11334;SDS011;5722;42.620;23.374;2022-12-07T04:11:24;86.40;;;46.20;;
11334;SDS011;5722;42.620;23.374;2022-12-07T04:13:57;43.50;;;26.63;;
11334;SDS011;5722;42.620;23.374;2022-12-07T04:16:55;40.43;;;26.27;;
11334;SDS011;5722;42.620;23.374;2022-12-07T04:19:34;41.67;;;26.97;;
11334;SDS011;5722;42.620;23.374;2022-12-07T04:22:06;42.33;;;26.60;;
11334;SDS011;5722;42.620;23.374;2022-12-07T04:24:38;41.60;;;26.27;;
11334;SDS011;5722;42.620;23.374;2022-12-07T04:27:09;44.80;;;26.07;;
11334;SDS011;5722;42.620;23.374;2022-12-07T04:35:42;84.47;;;50.13;;
11334;SDS011;5722;42.620;23.374;2022-12-07T04:38:12;79.07;;;44.03;;
11334;SDS011;5722;42.620;23.374;2022-12-07T04:40:45;49.57;;;29.30;;
11334;SDS011;5722;42.620;23.374;2022-12-07T04:43:19;35.87;;;23.90;;
11334;SDS011;5722;42.620;23.374;2022-12-07T04:45:51;38.73;;;22.33;;
11334;SDS011;5722;42.620;23.374;2022-12-07T05:12:23;35.90;;;23.23;;
11334;SDS011;5722;42.620;23.374;2022-12-07T05:18:19;33.97;;;21.33;;
11334;SDS011;5722;42.620;23.374;2022-12-07T05:21:21;34.77;;;22.30;;
11334;SDS011;5722;42.620;23.374;2022-12-07T05:23:52;32.17;;;20.77;;
11334;SDS011;5722;42.620;23.374;2022-12-07T05:26:24;34.23;;;20.90;;
11334;SDS011;5722;42.620;23.374;2022-12-07T05:29:05;36.50;;;22.40;;
11334;SDS011;5722;42.620;23.374;2022-12-07T05:31:32;39.63;;;22.80;;
11334;SDS011;5722;42.620;23.374;2022-12-07T05:34:02;41.67;;;24.03;;
11334;SDS011;5722;42.620;23.374;2022-12-07T05:36:41;38.70;;;23.07;;
11334;SDS011;5722;42.620;23.374;2022-12-07T05:39:12;38.77;;;23.33;;
11334;SDS011;5722;42.620;23.374;2022-12-07T05:41:50;36.20;;;23.63;;
11334;SDS011;5722;42.620;23.374;2022-12-07T05:44:47;45.53;;;24.80;;
11334;SDS011;5722;42.620;23.374;2022-12-07T05:47:48;43.30;;;25.80;;
11334;SDS011;5722;42.620;23.374;2022-12-07T05:50:21;40.83;;;24.13;;
11334;SDS011;5722;42.620;23.374;2022-12-07T05:55:43;41.70;;;25.60;;
11334;SDS011;5722;42.620;23.374;2022-12-07T05:58:13;40.97;;;25.07;;
11334;SDS011;5722;42.620;23.374;2022-12-07T06:01:02;39.50;;;23.87;;
11334;SDS011;5722;42.620;23.374;2022-12-07T06:03:34;38.80;;;24.63;;
11334;SDS011;5722;42.620;23.374;2022-12-07T06:06:07;37.10;;;23.10;;
11334;SDS011;5722;42.620;23.374;2022-12-07T06:08:35;38.83;;;24.90;;
11334;SDS011;5722;42.620;23.374;2022-12-07T06:11:04;46.17;;;28.00;;
11334;SDS011;5722;42.620;23.374;2022-12-07T06:13:48;51.93;;;32.27;;
11334;SDS011;5722;42.620;23.374;2022-12-07T06:16:15;41.73;;;28.07;;
11334;SDS011;5722;42.620;23.374;2022-12-07T06:18:43;44.73;;;27.67;;
11334;SDS011;5722;42.620;23.374;2022-12-07T06:21:12;41.10;;;26.97;;
11334;SDS011;5722;42.620;23.374;2022-12-07T06:23:47;46.77;;;30.73;;
11334;SDS011;5722;42.620;23.374;2022-12-07T06:26:23;45.40;;;30.03;;
11334;SDS011;5722;42.620;23.374;2022-12-07T06:28:50;60.13;;;36.53;;
11334;SDS011;5722;42.620;23.374;2022-12-07T06:31:17;68.13;;;42.30;;
11334;SDS011;5722;42.620;23.374;2022-12-07T06:33:48;70.67;;;39.73;;
11334;SDS011;5722;42.620;23.374;2022-12-07T06:36:15;65.97;;;36.70;;
11334;SDS011;5722;42.620;23.374;2022-12-07T06:38:45;57.00;;;31.40;;
11334;SDS011;5722;42.620;23.374;2022-12-07T06:41:14;62.93;;;35.07;;
11334;SDS011;5722;42.620;23.374;2022-12-07T06:43:46;55.37;;;28.70;;
11334;SDS011;5722;42.620;23.374;2022-12-07T06:46:13;56.57;;;29.07;;
11334;SDS011;5722;42.620;23.374;2022-12-07T06:48:44;45.97;;;29.83;;
11334;SDS011;5722;42.620;23.374;2022-12-07T06:51:15;53.30;;;27.67;;
11334;SDS011;5722;42.620;23.374;2022-12-07T06:53:42;47.97;;;28.93;;
11334;SDS011;5722;42.620;23.374;2022-12-07T06:56:11;50.07;;;29.07;;
11334;SDS011;5722;42.620;23.374;2022-12-07T06:58:39;52.27;;;30.13;;
11334;SDS011;5722;42.620;23.374;2022-12-07T07:01:11;52.60;;;29.07;;
11334;SDS011;5722;42.620;23.374;2022-12-07T07:03:39;52.40;;;27.63;;
11334;SDS011;5722;42.620;23.374;2022-12-07T07:06:09;49.30;;;28.53;;
11334;SDS011;5722;42.620;23.374;2022-12-07T07:08:41;46.97;;;29.40;;
11334;SDS011;5722;42.620;23.374;2022-12-07T07:11:08;49.57;;;30.00;;
11334;SDS011;5722;42.620;23.374;2022-12-07T07:13:36;55.03;;;29.43;;
11334;SDS011;5722;42.620;23.374;2022-12-07T07:16:04;49.83;;;30.33;;
11334;SDS011;5722;42.620;23.374;2022-12-07T07:18:34;50.70;;;29.53;;
11334;SDS011;5722;42.620;23.374;2022-12-07T07:21:01;55.67;;;30.97;;
11334;SDS011;5722;42.620;23.374;2022-12-07T07:23:31;50.43;;;30.13;;
11334;SDS011;5722;42.620;23.374;2022-12-07T07:25:58;58.60;;;30.07;;
11334;SDS011;5722;42.620;23.374;2022-12-07T07:28:28;48.90;;;28.67;;
11334;SDS011;5722;42.620;23.374;2022-12-07T07:31:05;48.27;;;29.43;;
11334;SDS011;5722;42.620;23.374;2022-12-07T07:33:37;46.90;;;28.23;;
11334;SDS011;5722;42.620;23.374;2022-12-07T07:36:09;46.70;;;27.70;;
11334;SDS011;5722;42.620;23.374;2022-12-07T07:38:50;46.67;;;27.10;;
11334;SDS011;5722;42.620;23.374;2022-12-07T07:41:22;42.07;;;25.60;;
11334;SDS011;5722;42.620;23.374;2022-12-07T07:43:49;45.37;;;26.70;;
11334;SDS011;5722;42.620;23.374;2022-12-07T07:46:16;50.30;;;29.70;;
11334;SDS011;5722;42.620;23.374;2022-12-07T07:48:48;47.80;;;26.97;;
11334;SDS011;5722;42.620;23.374;2022-12-07T07:51:16;47.97;;;28.50;;
11334;SDS011;5722;42.620;23.374;2022-12-07T07:53:51;51.30;;;32.27;;
11334;SDS011;5722;42.620;23.374;2022-12-07T07:56:23;45.40;;;28.00;;
11334;SDS011;5722;42.620;23.374;2022-12-07T07:58:54;50.53;;;33.00;;
11334;SDS011;5722;42.620;23.374;2022-12-07T08:01:22;49.07;;;32.00;;
11334;SDS011;5722;42.620;23.374;2022-12-07T08:03:55;47.33;;;30.77;;
11334;SDS011;5722;42.620;23.374;2022-12-07T08:06:23;44.80;;;25.97;;
11334;SDS011;5722;42.620;23.374;2022-12-07T08:08:55;43.67;;;27.47;;
11334;SDS011;5722;42.620;23.374;2022-12-07T08:11:25;51.97;;;28.20;;
11334;SDS011;5722;42.620;23.374;2022-12-07T08:13:53;46.27;;;26.57;;
11334;SDS011;5722;42.620;23.374;2022-12-07T08:16:19;44.03;;;27.43;;
11334;SDS011;5722;42.620;23.374;2022-12-07T08:18:49;49.23;;;27.63;;
11334;SDS011;5722;42.620;23.374;2022-12-07T08:21:20;42.93;;;26.20;;
11334;SDS011;5722;42.620;23.374;2022-12-07T08:23:47;44.80;;;27.57;;
11334;SDS011;5722;42.620;23.374;2022-12-07T08:26:14;48.07;;;25.77;;
11334;SDS011;5722;42.620;23.374;2022-12-07T08:28:42;40.80;;;24.87;;
11334;SDS011;5722;42.620;23.374;2022-12-07T08:31:14;44.27;;;24.67;;
11334;SDS011;5722;42.620;23.374;2022-12-07T08:33:44;40.60;;;25.07;;
11334;SDS011;5722;42.620;23.374;2022-12-07T08:36:12;39.13;;;23.77;;
11334;SDS011;5722;42.620;23.374;2022-12-07T08:38:44;36.97;;;24.73;;
11334;SDS011;5722;42.620;23.374;2022-12-07T08:41:14;40.70;;;28.57;;
11334;SDS011;5722;42.620;23.374;2022-12-07T08:43:43;42.73;;;25.77;;
11334;SDS011;5722;42.620;23.374;2022-12-07T08:46:11;39.40;;;24.40;;
11334;SDS011;5722;42.620;23.374;2022-12-07T08:48:42;39.33;;;24.17;;
11334;SDS011;5722;42.620;23.374;2022-12-07T08:51:11;39.77;;;24.53;;
11334;SDS011;5722;42.620;23.374;2022-12-07T08:53:43;35.97;;;23.60;;
11334;SDS011;5722;42.620;23.374;2022-12-07T08:56:12;38.20;;;23.93;;
11334;SDS011;5722;42.620;23.374;2022-12-07T08:58:45;37.27;;;23.73;;
11334;SDS011;5722;42.620;23.374;2022-12-07T09:01:14;38.37;;;24.50;;
11334;SDS011;5722;42.620;23.374;2022-12-07T09:03:43;44.30;;;24.13;;
11334;SDS011;5722;42.620;23.374;2022-12-07T09:06:13;39.80;;;23.67;;
11334;SDS011;5722;42.620;23.374;2022-12-07T09:11:27;40.23;;;23.03;;
11334;SDS011;5722;42.620;23.374;2022-12-07T09:13:54;38.97;;;23.93;;
11334;SDS011;5722;42.620;23.374;2022-12-07T09:16:25;34.27;;;21.67;;
11334;SDS011;5722;42.620;23.374;2022-12-07T09:18:59;46.00;;;23.07;;
11334;SDS011;5722;42.620;23.374;2022-12-07T09:21:28;34.17;;;21.07;;
11334;SDS011;5722;42.620;23.374;2022-12-07T09:23:56;36.00;;;22.13;;
11334;SDS011;5722;42.620;23.374;2022-12-07T09:26:40;30.83;;;19.97;;
11334;SDS011;5722;42.620;23.374;2022-12-07T09:29:08;27.67;;;19.07;;
11334;SDS011;5722;42.620;23.374;2022-12-07T09:31:41;33.17;;;20.33;;
11334;SDS011;5722;42.620;23.374;2022-12-07T09:34:10;30.47;;;20.27;;
11334;SDS011;5722;42.620;23.374;2022-12-07T09:36:41;27.97;;;19.23;;
11334;SDS011;5722;42.620;23.374;2022-12-07T09:39:11;30.33;;;19.47;;
11334;SDS011;5722;42.620;23.374;2022-12-07T09:41:40;32.47;;;19.97;;
11334;SDS011;5722;42.620;23.374;2022-12-07T09:44:10;27.83;;;20.23;;
11334;SDS011;5722;42.620;23.374;2022-12-07T09:46:39;29.53;;;19.43;;
11334;SDS011;5722;42.620;23.374;2022-12-07T09:49:20;31.43;;;18.80;;
11334;SDS011;5722;42.620;23.374;2022-12-07T09:51:58;31.60;;;19.10;;
11334;SDS011;5722;42.620;23.374;2022-12-07T09:54:28;29.67;;;18.73;;
11334;SDS011;5722;42.620;23.374;2022-12-07T09:59:42;26.00;;;18.53;;
11334;SDS011;5722;42.620;23.374;2022-12-07T10:02:23;28.97;;;17.77;;
11334;SDS011;5722;42.620;23.374;2022-12-07T10:04:51;30.77;;;18.33;;
11334;SDS011;5722;42.620;23.374;2022-12-07T10:07:18;29.03;;;19.13;;
11334;SDS011;5722;42.620;23.374;2022-12-07T10:09:48;27.13;;;18.47;;
11334;SDS011;5722;42.620;23.374;2022-12-07T10:12:17;26.23;;;17.63;;
11334;SDS011;5722;42.620;23.374;2022-12-07T10:14:56;26.97;;;17.83;;
11334;SDS011;5722;42.620;23.374;2022-12-07T10:17:28;30.10;;;17.93;;
11334;SDS011;5722;42.620;23.374;2022-12-07T10:22:57;31.87;;;19.00;;
11334;SDS011;5722;42.620;23.374;2022-12-07T10:25:38;37.17;;;18.60;;
11334;SDS011;5722;42.620;23.374;2022-12-07T10:28:11;33.57;;;17.73;;
11334;SDS011;5722;42.620;23.374;2022-12-07T10:30:52;28.13;;;18.37;;
11334;SDS011;5722;42.620;23.374;2022-12-07T10:33:32;23.90;;;16.17;;
11334;SDS011;5722;42.620;23.374;2022-12-07T10:36:14;27.20;;;15.90;;
11334;SDS011;5722;42.620;23.374;2022-12-07T10:38:44;21.40;;;13.07;;
11334;SDS011;5722;42.620;23.374;2022-12-07T10:41:17;22.17;;;13.73;;
11334;SDS011;5722;42.620;23.374;2022-12-07T10:43:49;23.50;;;14.97;;
11334;SDS011;5722;42.620;23.374;2022-12-07T10:46:24;24.97;;;15.30;;
11334;SDS011;5722;42.620;23.374;2022-12-07T10:48:55;24.07;;;14.63;;
11334;SDS011;5722;42.620;23.374;2022-12-07T10:51:27;23.00;;;15.77;;
11334;SDS011;5722;42.620;23.374;2022-12-07T10:54:03;34.37;;;17.73;;
11334;SDS011;5722;42.620;23.374;2022-12-07T10:59:26;28.30;;;17.50;;
11334;SDS011;5722;42.620;23.374;2022-12-07T11:02:01;31.23;;;17.67;;
11334;SDS011;5722;42.620;23.374;2022-12-07T11:04:41;27.07;;;17.40;;
11334;SDS011;5722;42.620;23.374;2022-12-07T11:07:14;31.00;;;17.77;;
11334;SDS011;5722;42.620;23.374;2022-12-07T11:09:51;27.87;;;16.97;;
11334;SDS011;5722;42.620;23.374;2022-12-07T11:12:58;31.87;;;16.93;;
11334;SDS011;5722;42.620;23.374;2022-12-07T11:15:28;33.27;;;17.97;;
11334;SDS011;5722;42.620;23.374;2022-12-07T11:18:03;28.07;;;17.30;;
11334;SDS011;5722;42.620;23.374;2022-12-07T11:20:39;29.93;;;17.53;;
11334;SDS011;5722;42.620;23.374;2022-12-07T11:23:12;31.40;;;17.87;;
11334;SDS011;5722;42.620;23.374;2022-12-07T11:25:52;35.77;;;19.03;;
11334;SDS011;5722;42.620;23.374;2022-12-07T11:28:30;31.93;;;17.37;;
11334;SDS011;5722;42.620;23.374;2022-12-07T11:31:03;34.33;;;17.40;;
11334;SDS011;5722;42.620;23.374;2022-12-07T11:33:41;39.60;;;18.37;;
11334;SDS011;5722;42.620;23.374;2022-12-07T11:36:14;34.90;;;17.20;;
11334;SDS011;5722;42.620;23.374;2022-12-07T11:38:43;31.23;;;16.20;;
11334;SDS011;5722;42.620;23.374;2022-12-07T11:41:15;33.13;;;18.00;;
11334;SDS011;5722;42.620;23.374;2022-12-07T11:43:54;31.20;;;17.57;;
11334;SDS011;5722;42.620;23.374;2022-12-07T11:46:25;26.87;;;17.33;;
11334;SDS011;5722;42.620;23.374;2022-12-07T11:49:01;35.27;;;17.30;;
11334;SDS011;5722;42.620;23.374;2022-12-07T11:51:32;31.80;;;17.23;;
11334;SDS011;5722;42.620;23.374;2022-12-07T11:54:04;37.23;;;17.07;;
11334;SDS011;5722;42.620;23.374;2022-12-07T11:56:32;31.50;;;17.60;;
11334;SDS011;5722;42.620;23.374;2022-12-07T11:59:04;25.63;;;16.47;;
11334;SDS011;5722;42.620;23.374;2022-12-07T12:01:44;29.30;;;16.57;;
11334;SDS011;5722;42.620;23.374;2022-12-07T12:04:23;27.50;;;16.30;;
11334;SDS011;5722;42.620;23.374;2022-12-07T12:06:59;28.17;;;16.97;;
11334;SDS011;5722;42.620;23.374;2022-12-07T12:09:33;27.07;;;16.43;;
11334;SDS011;5722;42.620;23.374;2022-12-07T12:12:13;30.47;;;17.23;;
11334;SDS011;5722;42.620;23.374;2022-12-07T12:14:48;33.27;;;17.00;;
11334;SDS011;5722;42.620;23.374;2022-12-07T12:17:27;35.87;;;17.77;;
11334;SDS011;5722;42.620;23.374;2022-12-07T12:20:05;40.87;;;17.43;;
11334;SDS011;5722;42.620;23.374;2022-12-07T12:22:34;29.80;;;17.60;;
11334;SDS011;5722;42.620;23.374;2022-12-07T12:25:13;25.73;;;16.60;;
11334;SDS011;5722;42.620;23.374;2022-12-07T12:27:46;31.43;;;17.17;;
11334;SDS011;5722;42.620;23.374;2022-12-07T12:30:30;29.80;;;15.93;;
11334;SDS011;5722;42.620;23.374;2022-12-07T12:33:03;29.80;;;16.23;;
11334;SDS011;5722;42.620;23.374;2022-12-07T12:35:33;32.50;;;16.93;;
11334;SDS011;5722;42.620;23.374;2022-12-07T12:41:07;24.57;;;15.03;;
11334;SDS011;5722;42.620;23.374;2022-12-07T12:44:01;28.03;;;16.03;;
11334;SDS011;5722;42.620;23.374;2022-12-07T12:49:33;32.03;;;19.00;;
11334;SDS011;5722;42.620;23.374;2022-12-07T12:54:57;32.27;;;18.73;;
11334;SDS011;5722;42.620;23.374;2022-12-07T12:57:32;31.97;;;18.63;;
11334;SDS011;5722;42.620;23.374;2022-12-07T13:00:02;31.63;;;20.03;;
11334;SDS011;5722;42.620;23.374;2022-12-07T13:02:34;32.23;;;18.57;;
11334;SDS011;5722;42.620;23.374;2022-12-07T13:05:16;36.73;;;19.43;;
11334;SDS011;5722;42.620;23.374;2022-12-07T13:08:00;34.63;;;19.43;;
11334;SDS011;5722;42.620;23.374;2022-12-07T13:10:33;29.03;;;18.67;;
11334;SDS011;5722;42.620;23.374;2022-12-07T13:15:52;33.10;;;18.73;;
11334;SDS011;5722;42.620;23.374;2022-12-07T13:18:37;32.83;;;18.13;;
11334;SDS011;5722;42.620;23.374;2022-12-07T13:23:54;30.87;;;17.97;;
11334;SDS011;5722;42.620;23.374;2022-12-07T13:26:24;34.73;;;18.73;;
11334;SDS011;5722;42.620;23.374;2022-12-07T13:29:05;42.63;;;19.47;;
11334;SDS011;5722;42.620;23.374;2022-12-07T13:31:34;31.50;;;19.30;;
11334;SDS011;5722;42.620;23.374;2022-12-07T13:34:27;31.97;;;18.87;;
11334;SDS011;5722;42.620;23.374;2022-12-07T13:36:57;33.37;;;17.80;;
11334;SDS011;5722;42.620;23.374;2022-12-07T13:39:32;30.83;;;18.10;;
11334;SDS011;5722;42.620;23.374;2022-12-07T13:42:15;28.07;;;16.50;;
11334;SDS011;5722;42.620;23.374;2022-12-07T13:44:45;26.93;;;17.13;;
11334;SDS011;5722;42.620;23.374;2022-12-07T13:47:14;37.07;;;16.73;;
11334;SDS011;5722;42.620;23.374;2022-12-07T13:49:46;32.27;;;16.07;;
11334;SDS011;5722;42.620;23.374;2022-12-07T13:52:17;33.10;;;17.60;;
11334;SDS011;5722;42.620;23.374;2022-12-07T13:54:49;27.87;;;17.33;;
11334;SDS011;5722;42.620;23.374;2022-12-07T13:57:17;29.57;;;17.67;;
11334;SDS011;5722;42.620;23.374;2022-12-07T13:59:46;39.03;;;18.40;;
11334;SDS011;5722;42.620;23.374;2022-12-07T14:02:17;36.53;;;17.43;;
11334;SDS011;5722;42.620;23.374;2022-12-07T14:04:50;29.63;;;17.40;;
11334;SDS011;5722;42.620;23.374;2022-12-07T14:07:23;31.27;;;17.60;;
11334;SDS011;5722;42.620;23.374;2022-12-07T14:10:00;26.77;;;16.20;;
11334;SDS011;5722;42.620;23.374;2022-12-07T14:12:27;25.40;;;17.03;;
11334;SDS011;5722;42.620;23.374;2022-12-07T14:14:56;29.70;;;18.10;;
11334;SDS011;5722;42.620;23.374;2022-12-07T14:17:28;32.43;;;18.17;;
11334;SDS011;5722;42.620;23.374;2022-12-07T14:19:58;30.33;;;18.47;;
11334;SDS011;5722;42.620;23.374;2022-12-07T14:22:28;26.53;;;17.33;;
11334;SDS011;5722;42.620;23.374;2022-12-07T14:27:48;31.77;;;17.97;;
11334;SDS011;5722;42.620;23.374;2022-12-07T14:30:18;37.43;;;18.40;;
11334;SDS011;5722;42.620;23.374;2022-12-07T14:32:51;47.20;;;20.07;;
11334;SDS011;5722;42.620;23.374;2022-12-07T14:35:19;42.50;;;20.33;;
11334;SDS011;5722;42.620;23.374;2022-12-07T14:37:48;41.50;;;19.93;;
11334;SDS011;5722;42.620;23.374;2022-12-07T14:40:19;45.47;;;19.87;;
11334;SDS011;5722;42.620;23.374;2022-12-07T14:42:52;39.47;;;19.90;;
11334;SDS011;5722;42.620;23.374;2022-12-07T14:45:21;40.50;;;20.50;;
11334;SDS011;5722;42.620;23.374;2022-12-07T14:47:48;36.33;;;19.87;;
11334;SDS011;5722;42.620;23.374;2022-12-07T14:50:19;34.63;;;19.40;;
11334;SDS011;5722;42.620;23.374;2022-12-07T14:52:48;40.73;;;22.17;;
11334;SDS011;5722;42.620;23.374;2022-12-07T14:55:20;35.27;;;20.53;;
11334;SDS011;5722;42.620;23.374;2022-12-07T14:57:58;37.63;;;23.27;;
11334;SDS011;5722;42.620;23.374;2022-12-07T15:00:27;43.27;;;21.70;;
11334;SDS011;5722;42.620;23.374;2022-12-07T15:02:57;37.37;;;21.37;;
11334;SDS011;5722;42.620;23.374;2022-12-07T15:05:27;34.47;;;20.90;;
11334;SDS011;5722;42.620;23.374;2022-12-07T15:07:57;31.53;;;19.60;;
11334;SDS011;5722;42.620;23.374;2022-12-07T15:10:25;34.20;;;19.17;;
11334;SDS011;5722;42.620;23.374;2022-12-07T15:18:49;40.10;;;20.97;;
11334;SDS011;5722;42.620;23.374;2022-12-07T15:21:17;36.27;;;18.00;;
11334;SDS011;5722;42.620;23.374;2022-12-07T15:23:56;36.60;;;20.50;;
11334;SDS011;5722;42.620;23.374;2022-12-07T15:26:26;39.57;;;27.30;;
11334;SDS011;5722;42.620;23.374;2022-12-07T15:28:58;48.73;;;26.90;;
11334;SDS011;5722;42.620;23.374;2022-12-07T15:31:26;38.10;;;22.43;;
11334;SDS011;5722;42.620;23.374;2022-12-07T15:33:56;42.50;;;25.17;;
11334;SDS011;5722;42.620;23.374;2022-12-07T15:36:25;34.47;;;20.27;;
11334;SDS011;5722;42.620;23.374;2022-12-07T15:38:55;43.17;;;22.47;;
11334;SDS011;5722;42.620;23.374;2022-12-07T15:41:22;38.23;;;22.20;;
11334;SDS011;5722;42.620;23.374;2022-12-07T15:43:50;37.10;;;17.53;;
11334;SDS011;5722;42.620;23.374;2022-12-07T15:46:36;38.77;;;17.07;;
11334;SDS011;5722;42.620;23.374;2022-12-07T15:52:04;34.20;;;20.00;;
11334;SDS011;5722;42.620;23.374;2022-12-07T15:54:34;63.87;;;31.00;;
11334;SDS011;5722;42.620;23.374;2022-12-07T15:57:04;127.37;;;73.63;;
11334;SDS011;5722;42.620;23.374;2022-12-07T15:59:33;68.07;;;35.30;;
11334;SDS011;5722;42.620;23.374;2022-12-07T16:02:00;63.20;;;40.77;;
11334;SDS011;5722;42.620;23.374;2022-12-07T16:04:31;50.37;;;29.53;;
11334;SDS011;5722;42.620;23.374;2022-12-07T16:07:02;75.03;;;42.73;;
11334;SDS011;5722;42.620;23.374;2022-12-07T16:09:29;65.90;;;40.13;;
11334;SDS011;5722;42.620;23.374;2022-12-07T16:11:58;80.67;;;45.70;;
11334;SDS011;5722;42.620;23.374;2022-12-07T16:14:28;63.07;;;37.87;;
11334;SDS011;5722;42.620;23.374;2022-12-07T16:16:57;65.70;;;38.07;;
11334;SDS011;5722;42.620;23.374;2022-12-07T16:19:26;57.00;;;37.80;;
11334;SDS011;5722;42.620;23.374;2022-12-07T16:21:56;47.47;;;26.07;;
11334;SDS011;5722;42.620;23.374;2022-12-07T16:27:15;39.73;;;26.80;;
11334;SDS011;5722;42.620;23.374;2022-12-07T16:29:43;38.73;;;23.87;;
11334;SDS011;5722;42.620;23.374;2022-12-07T16:32:14;37.33;;;22.17;;
11334;SDS011;5722;42.620;23.374;2022-12-07T16:34:49;52.27;;;28.83;;
11334;SDS011;5722;42.620;23.374;2022-12-07T16:37:20;39.73;;;24.87;;
11334;SDS011;5722;42.620;23.374;2022-12-07T16:39:50;30.77;;;17.77;;
11334;SDS011;5722;42.620;23.374;2022-12-07T16:42:45;27.93;;;16.37;;
11334;SDS011;5722;42.620;23.374;2022-12-07T16:45:14;47.67;;;30.60;;
11334;SDS011;5722;42.620;23.374;2022-12-07T16:47:41;102.10;;;58.13;;
11334;SDS011;5722;42.620;23.374;2022-12-07T16:50:09;54.43;;;29.60;;
11334;SDS011;5722;42.620;23.374;2022-12-07T16:52:42;41.50;;;25.57;;
11334;SDS011;5722;42.620;23.374;2022-12-07T16:55:15;60.63;;;37.33;;
11334;SDS011;5722;42.620;23.374;2022-12-07T16:57:45;66.63;;;36.67;;
11334;SDS011;5722;42.620;23.374;2022-12-07T17:00:12;63.57;;;49.20;;
11334;SDS011;5722;42.620;23.374;2022-12-07T17:02:42;48.60;;;33.53;;
11334;SDS011;5722;42.620;23.374;2022-12-07T17:05:12;45.50;;;27.13;;
11334;SDS011;5722;42.620;23.374;2022-12-07T17:07:40;71.73;;;38.07;;
11334;SDS011;5722;42.620;23.374;2022-12-07T17:10:12;62.97;;;35.30;;
11334;SDS011;5722;42.620;23.374;2022-12-07T17:12:41;69.20;;;38.70;;
11334;SDS011;5722;42.620;23.374;2022-12-07T17:15:11;67.30;;;37.73;;
11334;SDS011;5722;42.620;23.374;2022-12-07T17:17:43;91.20;;;47.53;;